createdAt,value
2023-01-05T00:01:47.737Z,6.57
2023-01-05T00:04:54.935Z,6.40
2023-01-05T00:08:02.097Z,5.90
2023-01-05T00:11:32.612Z,5.93
2023-01-05T00:14:58.426Z,5.60
2023-01-05T00:18:24.152Z,6.70
2023-01-05T00:21:49.693Z,7.07
2023-01-05T00:25:12.950Z,5.00
2023-01-05T00:28:20.324Z,6.20
2023-01-05T00:31:27.610Z,5.90
2023-01-05T00:34:34.935Z,7.03
2023-01-05T00:37:42.353Z,5.60
2023-01-05T00:40:49.912Z,6.70
2023-01-05T00:43:57.040Z,5.73
2023-01-05T00:47:04.232Z,6.00
2023-01-05T00:50:15.969Z,5.20
2023-01-05T00:53:23.254Z,6.53
2023-01-05T00:56:30.420Z,4.80
2023-01-05T00:59:37.534Z,6.47
2023-01-05T01:02:45.289Z,5.60
2023-01-05T01:05:59.521Z,5.73
2023-01-05T01:09:06.648Z,4.90
2023-01-05T01:12:13.880Z,5.70
2023-01-05T01:15:21.173Z,6.83
2023-01-05T01:18:28.301Z,5.97
2023-01-05T01:21:35.572Z,5.00
2023-01-05T01:24:42.794Z,5.80
2023-01-05T01:27:49.927Z,4.47
2023-01-05T01:30:58.367Z,5.40
2023-01-05T01:34:05.748Z,5.73
2023-01-05T01:37:13.098Z,4.73
2023-01-05T01:40:20.277Z,6.03
2023-01-05T01:43:50.741Z,5.70
2023-01-05T01:46:57.896Z,5.17
2023-01-05T01:50:11.294Z,5.57
2023-01-05T01:53:22.749Z,4.70
2023-01-05T01:56:37.332Z,5.03
2023-01-05T01:59:44.964Z,4.90
2023-01-05T02:02:54.661Z,5.13
2023-01-05T02:06:01.903Z,6.27
2023-01-05T02:09:09.177Z,7.10
2023-01-05T02:12:26.277Z,6.13
2023-01-05T02:15:51.536Z,6.10
2023-01-05T02:19:27.381Z,5.67
2023-01-05T02:22:34.484Z,6.13
2023-01-05T02:26:03.680Z,6.03
2023-01-05T02:29:33.395Z,5.57
2023-01-05T02:32:47.680Z,5.10
2023-01-05T02:36:10.276Z,6.70
2023-01-05T02:39:21.210Z,5.13
2023-01-05T02:42:30.849Z,6.23
2023-01-05T02:45:38.050Z,6.10
2023-01-05T02:48:48.194Z,5.40
2023-01-05T02:51:57.149Z,7.10
2023-01-05T02:55:08.266Z,5.50
2023-01-05T02:58:31.651Z,6.80
2023-01-05T03:01:46.707Z,5.33
2023-01-05T03:04:58.312Z,7.70
2023-01-05T03:08:10.551Z,6.53
2023-01-05T03:11:36.161Z,5.50
2023-01-05T03:14:48.744Z,5.67
2023-01-05T03:17:59.182Z,4.20
2023-01-05T03:21:06.545Z,5.27
2023-01-05T03:24:32.381Z,5.57
2023-01-05T03:27:58.237Z,4.10
2023-01-05T03:31:38.666Z,4.90
2023-01-05T03:35:29.737Z,5.03
2023-01-05T03:38:42.438Z,7.23
2023-01-05T03:41:49.705Z,4.87
2023-01-05T03:44:56.940Z,5.23
2023-01-05T03:48:04.380Z,6.20
2023-01-05T03:51:11.559Z,5.83
2023-01-05T03:54:18.691Z,5.17
2023-01-05T03:57:25.834Z,6.10
2023-01-05T04:00:32.980Z,6.07
2023-01-05T04:03:41.396Z,5.47
2023-01-05T04:06:48.661Z,5.30
2023-01-05T04:09:55.824Z,6.23
2023-01-05T04:13:03.001Z,5.23
2023-01-05T04:16:10.189Z,6.40
2023-01-05T04:19:17.456Z,6.93
2023-01-05T04:22:27.370Z,6.60
2023-01-05T04:25:34.771Z,6.63
2023-01-05T04:28:41.962Z,7.90
2023-01-05T04:31:49.080Z,7.53
2023-01-05T04:34:56.233Z,9.00
2023-01-05T04:38:03.425Z,7.00
2023-01-05T04:41:11.226Z,7.57
2023-01-05T04:44:18.382Z,9.33
2023-01-05T04:47:25.512Z,6.93
2023-01-05T04:50:32.791Z,7.60
2023-01-05T04:53:40.005Z,7.30
2023-01-05T04:56:47.163Z,7.97
2023-01-05T04:59:54.303Z,7.97
2023-01-05T05:03:02.381Z,6.50
2023-01-05T05:06:09.839Z,8.50
2023-01-05T05:09:16.942Z,7.00
2023-01-05T05:12:24.130Z,7.27
2023-01-05T05:15:31.284Z,8.10
2023-01-05T05:18:38.421Z,6.17
2023-01-05T05:21:45.918Z,7.23
2023-01-05T05:24:53.104Z,6.77
2023-01-05T05:28:00.239Z,6.97
2023-01-05T05:31:07.473Z,6.77
2023-01-05T05:34:14.797Z,7.63
2023-01-05T05:37:21.977Z,6.23
2023-01-05T05:40:29.250Z,6.83
2023-01-05T05:43:36.510Z,6.60
2023-01-05T05:46:43.748Z,8.33
2023-01-05T05:49:51.062Z,6.77
2023-01-05T05:52:58.287Z,7.83
2023-01-05T05:56:05.770Z,7.63
2023-01-05T05:59:13.178Z,7.03
2023-01-05T06:02:20.485Z,8.70
2023-01-05T06:05:28.660Z,8.27
2023-01-05T06:08:35.873Z,8.07
2023-01-05T06:11:43.013Z,7.23
2023-01-05T06:14:50.590Z,8.63
2023-01-05T06:17:57.734Z,8.80
2023-01-05T06:21:05.139Z,9.53
2023-01-05T06:24:12.289Z,10.27
2023-01-05T06:27:19.460Z,9.50
2023-01-05T06:30:27.337Z,8.37
2023-01-05T06:33:34.454Z,10.10
2023-01-05T06:36:41.681Z,8.80
2023-01-05T06:39:48.927Z,9.77
2023-01-05T06:42:56.197Z,8.83
2023-01-05T06:46:03.523Z,8.40
2023-01-05T06:49:12.167Z,9.60
2023-01-05T06:52:19.350Z,9.93
2023-01-05T06:55:26.613Z,8.77
2023-01-05T06:58:33.794Z,10.73
2023-01-05T07:01:41.164Z,11.00
2023-01-05T07:04:48.401Z,10.03
2023-01-05T07:07:55.685Z,11.30
2023-01-05T07:11:02.871Z,9.87
2023-01-05T07:14:10.419Z,9.93
2023-01-05T07:17:17.707Z,10.50
2023-01-05T07:20:24.857Z,11.20
2023-01-05T07:23:32.058Z,11.57
2023-01-05T07:26:39.382Z,12.43
2023-01-05T07:29:46.537Z,12.60
2023-01-05T07:32:57.869Z,11.60
2023-01-05T07:36:05.561Z,11.47
2023-01-05T07:39:12.852Z,14.17
2023-01-05T07:42:20.005Z,11.40
2023-01-05T07:45:27.267Z,14.50
2023-01-05T07:48:34.512Z,14.43
2023-01-05T07:51:41.718Z,14.27
2023-01-05T07:54:48.865Z,12.47
2023-01-05T07:57:56.008Z,13.87
2023-01-05T08:01:05.195Z,14.00
2023-01-05T08:04:12.452Z,12.43
2023-01-05T08:07:19.740Z,12.30
2023-01-05T08:10:29.895Z,12.77
2023-01-05T08:13:55.691Z,13.20
2023-01-05T08:17:02.925Z,12.33
2023-01-05T08:20:10.485Z,12.20
2023-01-05T08:23:25.226Z,13.20
2023-01-05T08:26:33.793Z,12.87
2023-01-05T08:29:41.037Z,13.30
2023-01-05T08:32:48.327Z,16.10
2023-01-05T08:35:55.555Z,13.73
2023-01-05T08:39:02.756Z,11.60
2023-01-05T08:42:09.930Z,12.47
2023-01-05T08:45:18.021Z,13.17
2023-01-05T08:48:25.207Z,11.83
2023-01-05T08:51:32.548Z,11.03
2023-01-05T08:54:39.735Z,11.17
2023-01-05T08:57:46.867Z,11.80
2023-01-05T09:00:54.129Z,11.77
2023-01-05T09:04:01.319Z,14.50
2023-01-05T09:07:08.486Z,13.60
2023-01-05T09:10:15.971Z,13.47
2023-01-05T09:13:23.153Z,15.40
2023-01-05T09:20:03.216Z,13.43
2023-01-05T09:23:10.432Z,13.60
2023-01-05T09:26:18.024Z,13.80
2023-01-05T09:29:25.323Z,16.00
2023-01-05T09:32:32.598Z,15.30
2023-01-05T09:35:39.754Z,14.30
2023-01-05T09:38:50.818Z,13.47
2023-01-05T09:42:02.010Z,14.87
2023-01-05T09:45:11.941Z,16.50
2023-01-05T09:48:20.072Z,15.13
2023-01-05T09:51:28.342Z,16.07
2023-01-05T09:54:37.008Z,13.07
2023-01-05T09:57:54.909Z,14.70
2023-01-05T10:01:10.591Z,13.70
2023-01-05T10:04:26.650Z,14.43
2023-01-05T10:07:48.097Z,13.90
2023-01-05T10:11:19.878Z,14.23
2023-01-05T10:14:40.637Z,12.23
2023-01-05T10:17:47.984Z,12.03
2023-01-05T10:21:07.507Z,12.73
2023-01-05T10:24:31.349Z,11.53
2023-01-05T10:27:43.625Z,12.77
2023-01-05T10:31:02.041Z,11.70
2023-01-05T10:34:31.548Z,12.33
2023-01-05T10:37:41.720Z,12.23
2023-01-05T10:41:29.855Z,12.40
2023-01-05T10:44:42.970Z,11.67
2023-01-05T10:47:50.616Z,11.23
2023-01-05T10:50:57.954Z,10.20
2023-01-05T10:54:05.707Z,11.80
2023-01-05T10:57:34.030Z,10.50
2023-01-05T11:00:42.942Z,9.87
2023-01-05T11:07:21.138Z,7.97
2023-01-05T11:10:33.290Z,9.70
2023-01-05T11:13:43.034Z,9.60
2023-01-05T11:16:53.504Z,9.20
2023-01-05T11:20:01.177Z,8.87
2023-01-05T11:23:35.779Z,8.03
2023-01-05T11:26:57.024Z,7.67
2023-01-05T11:30:16.484Z,7.00
2023-01-05T11:33:26.136Z,8.17
2023-01-05T11:36:33.447Z,8.03
2023-01-05T11:39:46.795Z,7.67
2023-01-05T11:42:54.046Z,6.83
2023-01-05T11:46:03.938Z,7.50
2023-01-05T11:49:11.333Z,7.20
2023-01-05T11:52:34.667Z,7.63
2023-01-05T11:55:41.934Z,7.93
2023-01-05T11:58:51.018Z,7.00
2023-01-05T12:02:16.571Z,6.43
2023-01-05T12:05:49.919Z,6.57
2023-01-05T12:09:32.702Z,6.30
2023-01-05T12:12:44.786Z,6.70
2023-01-05T12:16:10.363Z,7.10
2023-01-05T12:19:39.684Z,7.27
2023-01-05T12:23:14.302Z,7.90
2023-01-05T12:27:11.047Z,6.60
2023-01-05T12:31:59.864Z,6.73
2023-01-05T12:34:40.256Z,7.53
2023-01-05T12:38:22.943Z,7.20
2023-01-05T12:42:08.514Z,7.47
2023-01-05T12:45:31.286Z,7.67
2023-01-05T12:48:43.035Z,9.10
2023-01-05T12:52:01.106Z,8.00
2023-01-05T12:55:25.816Z,8.83
2023-01-05T12:58:37.313Z,7.93
2023-01-05T13:01:52.357Z,8.03
2023-01-05T13:05:09.462Z,8.00
2023-01-05T13:08:32.384Z,9.03
2023-01-05T13:12:07.007Z,8.37
2023-01-05T13:15:14.991Z,8.10
2023-01-05T13:18:24.645Z,6.03
2023-01-05T13:21:32.291Z,6.70
2023-01-05T13:24:49.280Z,6.77
2023-01-05T13:27:56.529Z,7.80
2023-01-05T13:31:36.218Z,8.87
2023-01-05T13:35:01.411Z,9.73
2023-01-05T13:38:46.034Z,8.50
2023-01-05T13:42:23.352Z,9.53
2023-01-05T13:45:48.796Z,8.17
2023-01-05T13:49:15.315Z,8.23
2023-01-05T13:52:56.593Z,9.30
2023-01-05T13:56:15.853Z,9.30
2023-01-05T13:59:39.806Z,9.30
2023-01-05T14:03:14.258Z,8.13
2023-01-05T14:06:25.333Z,9.30
2023-01-05T14:09:47.898Z,7.63
2023-01-05T14:12:55.350Z,7.93
2023-01-05T14:16:35.221Z,7.97
2023-01-05T14:19:50.884Z,8.03
2023-01-05T14:22:58.296Z,9.90
2023-01-05T14:26:09.373Z,7.53
2023-01-05T14:29:45.399Z,7.10
2023-01-05T14:32:53.551Z,7.07
2023-01-05T14:36:04.158Z,6.67
2023-01-05T14:39:20.364Z,5.97
2023-01-05T14:42:34.395Z,5.50
2023-01-05T14:45:41.622Z,6.63
2023-01-05T14:49:05.209Z,7.00
2023-01-05T14:52:18.296Z,6.27
2023-01-05T14:55:39.144Z,6.23
2023-01-05T14:58:53.370Z,6.13
2023-01-05T15:02:04.367Z,6.50
2023-01-05T15:05:15.786Z,6.40
2023-01-05T15:08:35.592Z,6.13
2023-01-05T15:12:05.455Z,7.73
2023-01-05T15:15:18.497Z,6.37
2023-01-05T15:18:53.400Z,6.90
2023-01-05T15:22:36.438Z,6.27
2023-01-05T15:26:07.791Z,7.33
2023-01-05T15:29:27.668Z,8.07
2023-01-05T15:32:40.568Z,8.03
2023-01-05T15:35:53.120Z,8.37
2023-01-05T15:39:00.405Z,7.30
2023-01-05T15:42:09.082Z,7.83
2023-01-05T15:45:24.561Z,8.03
2023-01-05T15:48:38.496Z,8.80
2023-01-05T15:51:53.482Z,7.77
2023-01-05T15:55:04.455Z,9.17
2023-01-05T15:58:16.148Z,9.30
2023-01-05T16:07:21.997Z,10.80
2023-01-05T16:10:50.847Z,9.10
2023-01-05T16:14:02.219Z,10.03
2023-01-05T16:16:51.315Z,8.60
2023-01-05T16:19:23.830Z,10.10
2023-01-05T16:22:06.672Z,11.07
2023-01-05T16:24:42.689Z,9.13
2023-01-05T16:27:11.551Z,9.93
2023-01-05T16:29:46.034Z,11.13
2023-01-05T16:32:36.810Z,9.30
2023-01-05T16:35:33.049Z,8.03
2023-01-05T16:38:09.581Z,10.83
2023-01-05T16:40:39.058Z,8.00
2023-01-05T16:43:17.422Z,8.27
2023-01-05T16:45:44.012Z,7.67
2023-01-05T16:48:36.811Z,7.70
2023-01-05T16:51:05.676Z,8.00
2023-01-05T16:53:33.147Z,8.20
2023-01-05T16:56:00.787Z,8.27
2023-01-05T16:58:30.400Z,6.97
2023-01-05T17:01:09.705Z,8.47
2023-01-05T17:03:36.221Z,8.70
2023-01-05T17:06:03.107Z,8.63
2023-01-05T17:08:31.909Z,9.20
2023-01-05T17:10:59.527Z,9.10
2023-01-05T17:13:32.807Z,7.33
2023-01-05T17:15:59.475Z,8.37
2023-01-05T17:18:28.615Z,8.90
2023-01-05T17:20:57.027Z,8.80
2023-01-05T17:23:30.235Z,7.00
2023-01-05T17:26:00.056Z,7.23
2023-01-05T17:28:26.602Z,8.77
2023-01-05T17:30:53.440Z,7.80
2023-01-05T17:33:20.070Z,8.10
2023-01-05T17:38:15.184Z,8.50
2023-01-05T17:40:42.467Z,9.67
2023-01-05T17:43:09.398Z,6.93
2023-01-05T17:45:38.530Z,7.80
2023-01-05T17:48:05.182Z,7.33
2023-01-05T17:50:33.314Z,9.50
2023-01-05T17:53:01.645Z,8.80
2023-01-05T17:55:29.480Z,7.60
2023-01-05T17:57:57.723Z,10.20
2023-01-05T18:00:26.192Z,8.90
2023-01-05T18:02:54.054Z,9.40
2023-01-05T18:05:21.734Z,10.63
2023-01-05T18:07:48.934Z,9.50
2023-01-05T18:10:18.592Z,8.83
2023-01-05T18:12:45.246Z,9.07
2023-01-05T18:15:12.791Z,8.47
2023-01-05T18:17:39.367Z,9.20
2023-01-05T18:20:06.960Z,9.67
2023-01-05T18:22:33.805Z,10.03
2023-01-05T18:25:00.557Z,11.87
2023-01-05T18:27:27.101Z,10.80
2023-01-05T18:29:53.720Z,11.60
2023-01-05T18:32:20.265Z,9.37
2023-01-05T18:34:46.836Z,9.53
2023-01-05T18:37:21.525Z,9.07
2023-01-05T18:39:48.564Z,8.90
2023-01-05T18:42:15.311Z,8.30
2023-01-05T18:44:42.098Z,8.53
2023-01-05T18:47:11.051Z,8.53
2023-01-05T18:49:37.791Z,9.83
2023-01-05T18:52:04.693Z,9.50
2023-01-05T18:54:31.296Z,8.83
2023-01-05T18:56:58.066Z,9.47
2023-01-05T18:59:25.461Z,8.70
2023-01-05T19:01:52.153Z,8.60
2023-01-05T19:04:18.781Z,9.33
2023-01-05T19:06:45.436Z,9.83
2023-01-05T19:09:13.308Z,9.67
2023-01-05T19:11:44.885Z,9.33
2023-01-05T19:14:11.575Z,9.30
2023-01-05T19:16:38.486Z,8.93
2023-01-05T19:19:09.250Z,11.77
2023-01-05T19:21:38.511Z,9.00
2023-01-05T19:24:07.500Z,8.80
2023-01-05T19:26:36.167Z,9.40
2023-01-05T19:29:04.007Z,9.40
2023-01-05T19:31:30.646Z,8.70
2023-01-05T19:34:00.116Z,8.50
2023-01-05T19:36:35.624Z,8.10
2023-01-05T19:39:07.562Z,7.80
2023-01-05T19:41:35.426Z,7.40
2023-01-05T19:44:01.921Z,8.43
2023-01-05T19:46:28.798Z,8.37
2023-01-05T19:48:56.529Z,7.50
2023-01-05T19:51:27.576Z,7.37
2023-01-05T19:53:59.177Z,8.70
2023-01-05T19:56:28.179Z,8.17
2023-01-05T19:58:57.387Z,8.20
2023-01-05T20:01:25.660Z,7.20
2023-01-05T20:03:54.354Z,7.20
2023-01-05T20:06:26.255Z,7.30
2023-01-05T20:08:54.427Z,8.60
2023-01-05T20:11:36.345Z,6.50
2023-01-05T20:14:05.031Z,7.13
2023-01-05T20:16:33.381Z,6.67
2023-01-05T20:19:00.504Z,7.03
2023-01-05T20:21:27.317Z,7.90
2023-01-05T20:23:53.819Z,7.00
2023-01-05T20:26:22.153Z,6.83
2023-01-05T20:28:49.477Z,7.90
2023-01-05T20:31:23.848Z,9.00
2023-01-05T20:33:51.425Z,8.47
2023-01-05T20:36:18.096Z,9.63
2023-01-05T20:38:45.043Z,9.30
2023-01-05T20:41:23.413Z,10.17
2023-01-05T20:43:51.252Z,8.30
2023-01-05T20:46:21.463Z,8.27
2023-01-05T20:48:52.611Z,7.80
2023-01-05T20:51:21.164Z,8.13
2023-01-05T20:53:48.748Z,7.10
2023-01-05T20:56:18.322Z,7.03
2023-01-05T20:58:46.365Z,6.80
2023-01-05T21:01:14.089Z,6.77
2023-01-05T21:03:41.522Z,6.03
2023-01-05T21:06:10.741Z,5.80
2023-01-05T21:08:37.709Z,6.10
2023-01-05T21:11:05.817Z,6.77
2023-01-05T21:13:33.305Z,6.50
2023-01-05T21:16:03.672Z,8.70
2023-01-05T21:18:33.748Z,6.57
2023-01-05T21:21:00.236Z,6.60
2023-01-05T21:23:26.718Z,5.57
2023-01-05T21:26:06.583Z,5.13
2023-01-05T21:28:39.149Z,4.80
2023-01-05T21:31:08.504Z,4.70
2023-01-05T21:33:36.320Z,7.57
2023-01-05T21:36:04.380Z,6.53
2023-01-05T21:39:01.035Z,7.80
2023-01-05T21:41:17.674Z,8.37
2023-01-05T21:43:44.415Z,10.50
2023-01-05T21:46:12.020Z,6.67
2023-01-05T21:48:38.982Z,7.43
2023-01-05T21:51:24.300Z,7.70
2023-01-05T21:54:09.159Z,6.93
2023-01-05T21:56:39.430Z,7.43
2023-01-05T21:59:09.393Z,5.73
2023-01-05T22:01:38.226Z,7.77
2023-01-05T22:04:05.370Z,6.70
2023-01-05T22:06:32.256Z,7.47
2023-01-05T22:08:58.934Z,5.70
2023-01-05T22:11:25.432Z,4.90
2023-01-05T22:13:52.033Z,5.77
2023-01-05T22:16:27.160Z,5.83
2023-01-05T22:18:53.975Z,5.90
2023-01-05T22:21:20.465Z,6.80
2023-01-05T22:23:47.061Z,6.87
2023-01-05T22:26:15.722Z,6.33
2023-01-05T22:28:43.800Z,5.27
2023-01-05T22:31:12.824Z,5.63
2023-01-05T22:33:41.423Z,5.13
2023-01-05T22:36:09.562Z,5.10
2023-01-05T22:38:37.566Z,5.50
2023-01-05T22:41:05.366Z,4.73
2023-01-05T22:43:32.177Z,5.90
2023-01-05T22:46:08.611Z,6.00
2023-01-05T22:48:36.879Z,7.00
2023-01-05T22:51:05.276Z,6.50
2023-01-05T22:53:32.173Z,6.97
2023-01-05T22:55:58.784Z,8.53
2023-01-05T22:58:25.718Z,9.43
2023-01-05T23:00:52.642Z,10.47
2023-01-05T23:03:20.853Z,10.00
2023-01-05T23:05:47.872Z,7.43
2023-01-05T23:08:14.445Z,6.97
2023-01-05T23:10:41.013Z,4.90
2023-01-05T23:13:07.601Z,4.97
2023-01-05T23:15:34.081Z,3.87
2023-01-05T23:18:00.813Z,3.70
2023-01-05T23:20:27.385Z,3.40
2023-01-05T23:22:53.988Z,3.00
2023-01-05T23:25:20.495Z,3.60
2023-01-05T23:27:47.010Z,4.03
2023-01-05T23:30:13.663Z,4.40
2023-01-05T23:32:40.107Z,4.30
2023-01-05T23:35:07.950Z,4.10
2023-01-05T23:37:34.666Z,5.13
2023-01-05T23:40:01.153Z,5.70
2023-01-05T23:42:46.229Z,5.97
2023-01-05T23:45:13.924Z,5.73
2023-01-05T23:47:40.583Z,5.10
2023-01-05T23:50:07.740Z,6.43
2023-01-05T23:52:34.474Z,6.33
2023-01-05T23:55:01.021Z,7.77
2023-01-05T23:57:29.934Z,6.90
2023-01-05T23:59:56.536Z,6.60
